nonprofithub.org alexa rank chart, nonprofithub.org alexa rank daily changes

nonprofithub.org alexa rank chart, nonprofithub.org alexa rank daily changes

nonprofithub.org
Actual rank:
208 227

RANK HISTORY

Date Rank Diff
2017/10/23 208 227 +5 780
2017/10/22 202 447 +5 309
2017/10/21 197 138 -7 303
2017/10/20 204 441 -4 817
2017/10/19 209 258 +4 453
2017/10/18 204 805 +928
2017/10/17 203 877 +2 396
2017/10/16 201 481 +4 918
2017/10/14 196 563 -247
2017/10/13 196 810 -5 232
2017/10/12 202 042 -2 726
2017/10/11 204 768 -4 720
2017/10/10 209 488 +1 932
2017/10/09 207 556 -11 422
2017/10/08 218 978 -2 216
2017/10/07 221 194 -2 842
2017/10/06 224 036 +100
2017/10/05 223 936 -4 177
2017/10/04 228 113 -2 236
2017/10/03 230 349 +587
2017/10/02 229 762 +126
2017/10/01 229 636 +799
2017/09/30 228 837 -2 245
2017/09/29 231 082 -9 249
2017/09/28 240 331 -9 793
2017/09/27 250 124 -6 929
2017/09/26 257 053 +5 993
2017/09/25 251 060 +14 590
2017/09/24 236 470 -3 041
2017/09/23 239 511 -9 759
2017/09/22 249 270 +4 417
2017/09/20 244 853 -1 046
2017/09/19 245 899 -3 535
2017/09/18 249 434 +2 074
2017/09/17 247 360 +3 173
2017/09/16 244 187 -2 751
2017/09/15 246 938 +518
2017/09/14 246 420 -6 194
2017/09/13 252 614 +1 710
2017/09/12 250 904 -299
2017/09/11 251 203 +4 145
2017/09/10 247 058 -444
2017/09/09 247 502 +3 893
2017/09/08 243 609 +6 485
2017/09/07 237 124 -2 187
2017/09/06 239 311 +323
2017/09/05 238 988 +2 108
2017/09/04 236 880 +7 440
2017/09/03 229 440 +8 481
2017/09/02 220 959 +65
2017/09/01 220 894 -1 870
2017/08/31 222 764 +1 705
2017/08/30 221 059 +1 664
2017/08/29 219 395 +4 302
2017/08/28 215 093 +7 767
2017/08/27 207 326 -859
2017/08/26 208 185 +3 305
2017/08/25 204 880 -8 811
2017/08/24 213 691

WIDGET FOR YOUR SITE

DOMAINS WITH THE NEAREST RANK

Domain Rank
ylmf.com 208 222
sparkron.dk 208 223
pooyeshacc.com 208 224
artroot.jp 208 225
likelythings.com 208 226
nonprofithub.org 208 227
portobello.com.br 208 228
newstrack.com 208 229
avfactory4me.blogspot.com 208 230
decathlon.hr 208 231
quran-unv.edu.sd 208 232

DOMAINS WITH THE NEAREST RANK BY TLD .org

Domain Rank
oxbridgedu.org 208 133
warrencountyschools.org 208 142
system11.org 208 166
10minutemail.org 208 182
lspace.org 208 212
nonprofithub.org 208 227
nmed.org 208 264
truwest.org 208 285
bash.org 208 313
qmsu.org 208 331
elitemadzone.org 208 352